Huvudsida
METAR-TAF:

METAR-TAF

Flygplatser :

Ängelholm-Helsingborg Airport

Helsingborg, Sverige

latitud: 56-17-46N, longitud: 012-50-50E, höjd: 21 m

Aktuellt väderrapport

Denna rapport gjordes för 39 minuter sedan, klockan 03:20 UTC
Vind 8 kt från syd/sydväst
Temperatur 4°C
Fuktighet 93%
Tryck 1001 hPa
Sikt: 6000 m
duggregn

METAR: ESTA 190320Z AUTO 21008KT 6000 DZ BKN005/// OVC011/// 04/03 Q1001

Tid: 04:59 (03:59 UTC)

Väderprognos

Denna rapport gjordes för 7 timmar och 56 minuter sedan, klockan 20:03 UTC
Prognos gäller från 18 kl. 21 UTC till 18 kl. 23 UTC
Vind 15 kt från väst/sydväst
Sikt 10 km eller mer
Brutna moln på en höjd av 1800 ft
Temporärt
från 18 kl. 21 UTC till 18 kl. 23 UTC
Brutna moln på en höjd av 1000 ft
Spridda moln på en höjd av 2000 ft, Cumulonimbus.

TAF: ESTA 182003Z 1821/1823 25015KT 9999 BKN018 TEMPO 1821/1823 BKN010 SCT020CB

Aktuella väderrapporter och prognoser från 4000 flygplatser (METAR- och TAF-rapporter).

De tillgängliga stationerna syns som gula och röda prickar på kartan.

För musen över prickarna för att se namnen på stationerna.

Klicka sedan för att få väderrapporter och prognoser.

För att ändra kartan: Klicka på de gröna knapparna med ett svart kors på för att zooma in; den gröna knappen med ett streck på för att zooma ut; eller på de gröna pilarna för angränsande kartor.


METAR-TAF: